Time;durP1;ratioP1;P1;durP2;ratioP2;P2;SDS_P1;SDS_P2;PMS_P1;PMS_P2;Temp;Humidity;BMP_temperature;BMP_pressure;BME280_temperature;BME280_humidity;BME280_pressure;Samples;Min_cycle;Max_cycle;Signal;HPM_P1;HPM_P2
2021/03/08 00:03:35;;;;;;;15.57;13.53;;;4.60;32.00;;;;;;10463872;28;20247;-71
2021/03/08 00:08:37;;;;;;;13.80;12.33;;;4.60;32.10;;;;;;10452298;28;20988;-73
2021/03/08 00:13:39;;;;;;;12.73;11.43;;;4.50;31.80;;;;;;10454366;28;20240;-73
2021/03/08 00:18:42;;;;;;;13.77;12.30;;;4.30;31.90;;;;;;10455972;28;20282;-73
2021/03/08 00:23:44;;;;;;;13.70;12.03;;;4.30;32.30;;;;;;10461883;28;20251;-73
2021/03/08 00:28:47;;;;;;;14.37;12.87;;;4.20;32.20;;;;;;10456011;28;20231;-73
2021/03/08 00:33:50;;;;;;;14.07;12.47;;;4.10;32.20;;;;;;10489580;22;20239;-71
2021/03/08 00:38:52;;;;;;;17.40;13.47;;;4.10;32.20;;;;;;10497623;28;20250;-71
2021/03/08 00:43:54;;;;;;;15.73;13.17;;;4.10;32.30;;;;;;10506611;28;20267;-71
2021/03/08 00:48:57;;;;;;;13.93;12.43;;;4.00;32.20;;;;;;10516149;28;20227;-71
2021/03/08 00:54:00;;;;;;;13.97;12.40;;;4.00;32.20;;;;;;10495934;28;20643;-71
2021/03/08 00:59:02;;;;;;;14.17;12.77;;;4.00;31.80;;;;;;10509094;28;20235;-71
2021/03/08 01:04:05;;;;;;;11.77;10.60;;;3.90;31.80;;;;;;10519249;28;20718;-71
2021/03/08 01:09:08;;;;;;;13.27;11.47;;;3.80;32.10;;;;;;10495512;28;20224;-71
2021/03/08 01:14:11;;;;;;;13.80;11.20;;;3.80;32.20;;;;;;10501379;28;20239;-71
2021/03/08 01:19:14;;;;;;;13.10;10.60;;;3.80;32.10;;;;;;10497087;28;20308;-71
2021/03/08 01:24:16;;;;;;;11.13;9.93;;;3.90;32.20;;;;;;10495906;28;20227;-71
2021/03/08 01:29:18;;;;;;;11.37;10.13;;;3.70;32.00;;;;;;10501652;28;20261;-71
2021/03/08 01:34:21;;;;;;;13.50;12.10;;;3.70;32.10;;;;;;10500734;28;20227;-71
2021/03/08 01:39:24;;;;;;;14.40;12.03;;;3.70;32.10;;;;;;10496431;28;20227;-71
2021/03/08 01:44:26;;;;;;;12.63;11.27;;;3.60;31.80;;;;;;10510087;28;20233;-71
2021/03/08 01:49:29;;;;;;;13.47;11.70;;;3.60;31.70;;;;;;10499367;28;20226;-71
2021/03/08 01:54:31;;;;;;;14.77;11.70;;;3.40;31.70;;;;;;10490755;28;20315;-71
2021/03/08 01:59:34;;;;;;;14.07;12.20;;;3.30;31.80;;;;;;10497197;28;20307;-71
2021/03/08 02:04:40;;;;;;;12.93;11.33;;;3.20;32.10;;;;;;10509380;28;20730;-71
2021/03/08 02:09:42;;;;;;;11.33;10.23;;;3.00;32.10;;;;;;10497268;28;20585;-71
2021/03/08 02:15:02;;;;;;;11.17;9.97;;;3.00;32.30;;;;;;10503590;28;20220;-71
2021/03/08 02:20:44;;;;;;;11.80;10.37;;;3.00;32.90;;;;;;10506582;28;20220;-71
2021/03/08 02:26:25;;;;;;;12.70;10.27;;;3.10;32.90;;;;;;10501436;28;20243;-70
2021/03/08 02:31:31;;;;;;;13.80;9.57;;;3.10;32.80;;;;;;10506891;28;20838;-71
2021/03/08 02:36:36;;;;;;;11.40;10.20;;;2.90;33.10;;;;;;10509811;28;20226;-71
2021/03/08 02:41:40;;;;;;;11.43;9.63;;;2.90;32.40;;;;;;10506025;28;20227;-70
2021/03/08 02:46:47;;;;;;;12.73;11.17;;;2.90;32.30;;;;;;10496573;28;20216;-70
2021/03/08 02:51:54;;;;;;;12.87;11.10;;;2.90;32.60;;;;;;10492097;28;20234;-70
2021/03/08 02:57:00;;;;;;;13.57;11.53;;;2.90;32.60;;;;;;10487161;28;20418;-70
2021/03/08 03:02:03;;;;;;;11.30;10.10;;;2.80;32.40;;;;;;10494239;28;20224;-70
2021/03/08 03:07:07;;;;;;;11.70;9.97;;;2.80;32.30;;;;;;10488176;28;20894;-70
2021/03/08 03:12:12;;;;;;;11.57;10.30;;;2.80;32.30;;;;;;10495332;28;20711;-70
2021/03/08 03:17:17;;;;;;;9.70;8.50;;;2.70;32.00;;;;;;10491558;28;20248;-70
2021/03/08 03:22:22;;;;;;;13.50;10.90;;;2.70;32.10;;;;;;10477803;22;20221;-71
2021/03/08 03:27:25;;;;;;;13.07;10.87;;;2.70;32.30;;;;;;10467265;28;20240;-71
2021/03/08 03:32:29;;;;;;;13.90;11.23;;;2.60;32.00;;;;;;10475935;28;20320;-71
2021/03/08 03:37:32;;;;;;;19.37;14.43;;;2.60;32.20;;;;;;10483923;28;20228;-71
2021/03/08 03:42:34;;;;;;;15.83;13.27;;;2.60;32.30;;;;;;10486135;28;20597;-71
2021/03/08 03:47:39;;;;;;;13.20;10.67;;;2.50;32.20;;;;;;10485860;28;20235;-71
2021/03/08 03:52:42;;;;;;;16.17;13.00;;;2.50;32.30;;;;;;10486910;28;20234;-71
2021/03/08 03:57:49;;;;;;;17.67;14.67;;;2.60;32.30;;;;;;10486203;28;20220;-71
2021/03/08 04:02:59;;;;;;;17.07;13.97;;;2.50;32.40;;;;;;10484580;28;20224;-70
2021/03/08 04:08:04;;;;;;;18.93;15.33;;;2.50;32.20;;;;;;10485648;28;20221;-70
2021/03/08 04:13:12;;;;;;;18.77;15.03;;;2.40;31.70;;;;;;10487106;28;20239;-70
2021/03/08 04:18:16;;;;;;;18.13;14.53;;;2.40;31.80;;;;;;10479137;28;20235;-70
2021/03/08 04:23:20;;;;;;;19.73;15.87;;;2.50;31.90;;;;;;10484455;28;20295;-70
2021/03/08 04:28:23;;;;;;;18.57;14.60;;;2.20;31.60;;;;;;10485612;28;20225;-71
2021/03/08 04:33:28;;;;;;;22.43;16.93;;;2.20;32.00;;;;;;10485655;28;20232;-71
2021/03/08 04:38:31;;;;;;;19.97;14.90;;;2.20;32.20;;;;;;10488373;28;20229;-71
2021/03/08 04:43:33;;;;;;;22.37;17.73;;;2.10;32.10;;;;;;10485163;28;20224;-71
2021/03/08 04:48:37;;;;;;;21.37;16.87;;;2.10;32.00;;;;;;10485327;28;20224;-71
2021/03/08 04:53:41;;;;;;;18.37;15.80;;;2.00;31.90;;;;;;10484153;28;20232;-71
2021/03/08 04:59:01;;;;;;;15.23;13.37;;;2.00;32.00;;;;;;10481457;28;20700;-72
2021/03/08 05:04:07;;;;;;;15.03;12.80;;;1.80;32.00;;;;;;10480719;28;20225;-72
2021/03/08 05:09:12;;;;;;;17.17;13.70;;;1.80;32.30;;;;;;10483586;28;20228;-72
2021/03/08 05:14:18;;;;;;;18.80;15.00;;;1.70;32.20;;;;;;10475047;28;20712;-71
2021/03/08 05:19:23;;;;;;;21.37;16.87;;;1.70;32.40;;;;;;10480851;28;20232;-71
2021/03/08 05:24:26;;;;;;;15.23;12.20;;;1.80;32.50;;;;;;10483254;28;20224;-71
2021/03/08 05:29:28;;;;;;;13.07;11.00;;;1.60;32.10;;;;;;10487734;28;20224;-71
2021/03/08 05:34:33;;;;;;;12.50;10.27;;;1.60;32.30;;;;;;10480614;28;20227;-71
2021/03/08 05:39:36;;;;;;;13.70;11.03;;;1.50;32.50;;;;;;10483699;28;20220;-71
2021/03/08 05:44:45;;;;;;;12.20;10.20;;;1.60;32.50;;;;;;10481664;28;20232;-71
2021/03/08 05:50:08;;;;;;;12.37;9.87;;;1.50;32.60;;;;;;10480372;28;20224;-71
2021/03/08 05:55:31;;;;;;;11.23;10.03;;;1.50;33.20;;;;;;10480035;28;20251;-70
2021/03/08 06:01:02;;;;;;;12.13;8.80;;;1.50;33.50;;;;;;10484573;28;20722;-70
2021/03/08 06:06:47;;;;;;;12.70;11.03;;;1.40;33.40;;;;;;10482623;28;20255;-70
2021/03/08 06:11:54;;;;;;;13.57;10.57;;;1.50;33.30;;;;;;10483852;28;20243;-70
2021/03/08 06:16:57;;;;;;;12.80;11.47;;;1.40;32.90;;;;;;10481123;28;20243;-71
2021/03/08 06:22:01;;;;;;;15.27;11.80;;;1.40;32.80;;;;;;10482391;28;20281;-71
2021/03/08 06:27:06;;;;;;;12.30;11.00;;;1.50;32.90;;;;;;10478949;28;20232;-71
2021/03/08 06:32:10;;;;;;;10.93;9.63;;;1.50;33.00;;;;;;10483592;28;20247;-71
2021/03/08 06:37:14;;;;;;;11.40;9.50;;;1.50;32.90;;;;;;10474194;28;20225;-71
2021/03/08 06:42:17;;;;;;;11.40;9.60;;;1.50;33.00;;;;;;10479895;28;20224;-71
2021/03/08 06:47:20;;;;;;;11.97;10.00;;;1.50;33.00;;;;;;10476990;28;20800;-71
2021/03/08 06:52:24;;;;;;;12.67;10.87;;;1.60;33.20;;;;;;10476276;28;20308;-71
2021/03/08 06:57:28;;;;;;;11.90;10.60;;;1.60;33.30;;;;;;10478435;28;20247;-70
2021/03/08 07:02:41;;;;;;;18.43;12.10;;;1.70;34.30;;;;;;10478505;28;20224;-71
2021/03/08 07:07:55;;;;;;;25.67;17.73;;;1.80;34.20;;;;;;10476829;28;20716;-71
2021/03/08 07:12:57;;;;;;;24.83;17.93;;;1.80;34.20;;;;;;10479877;28;20280;-72
2021/03/08 07:17:59;;;;;;;16.80;13.07;;;1.90;34.30;;;;;;10490564;28;20242;-71
2021/03/08 07:23:03;;;;;;;12.60;10.17;;;1.90;34.20;;;;;;10487669;28;20714;-71
2021/03/08 07:28:05;;;;;;;10.77;9.67;;;2.00;34.30;;;;;;10489773;28;20228;-71
2021/03/08 07:33:12;;;;;;;18.63;14.27;;;2.10;34.40;;;;;;10485878;28;20224;-71
2021/03/08 07:38:17;;;;;;;16.53;11.10;;;2.30;35.00;;;;;;10487666;28;20597;-71
2021/03/08 07:43:20;;;;;;;15.43;12.67;;;2.40;34.60;;;;;;10488613;28;20228;-71
2021/03/08 07:48:22;;;;;;;12.87;10.17;;;2.40;34.60;;;;;;10486123;28;20220;-71
2021/03/08 07:53:28;;;;;;;12.47;9.93;;;2.60;34.80;;;;;;10485866;28;20224;-70
2021/03/08 07:58:32;;;;;;;10.57;8.73;;;2.70;34.90;;;;;;10478792;28;20311;-69
2021/03/08 08:03:35;;;;;;;12.07;9.20;;;2.90;35.00;;;;;;10490913;28;20228;-69
2021/03/08 08:08:43;;;;;;;11.13;9.70;;;3.10;35.20;;;;;;10492092;28;20232;-70
2021/03/08 08:13:48;;;;;;;12.00;10.13;;;3.30;35.40;;;;;;10487689;28;20254;-69
2021/03/08 08:18:57;;;;;;;11.17;9.60;;;3.50;35.50;;;;;;10484613;28;20217;-69
2021/03/08 08:24:03;;;;;;;10.60;9.53;;;3.90;35.90;;;;;;10485765;28;20227;-69
2021/03/08 08:29:06;;;;;;;10.20;9.20;;;4.00;35.90;;;;;;10484737;28;20231;-69
2021/03/08 08:34:29;;;;;;;9.77;8.77;;;4.20;36.10;;;;;;10486670;28;20232;-69
2021/03/08 08:39:32;;;;;;;9.83;8.83;;;4.50;36.30;;;;;;10479926;28;20221;-69
2021/03/08 08:44:35;;;;;;;9.43;7.90;;;4.80;35.70;;;;;;10487757;28;20220;-69
2021/03/08 08:49:39;;;;;;;7.10;6.50;;;5.10;35.40;;;;;;10491614;28;20228;-68
2021/03/08 08:54:56;;;;;;;8.10;7.30;;;5.40;35.20;;;;;;10489305;28;20228;-69
2021/03/08 09:00:20;;;;;;;7.50;6.80;;;5.70;35.10;;;;;;10486465;28;20229;-69
2021/03/08 09:05:41;;;;;;;7.53;6.83;;;6.00;34.80;;;;;;10479267;28;20226;-69
2021/03/08 09:10:44;;;;;;;7.20;6.50;;;6.30;34.40;;;;;;10488286;28;20223;-70
2021/03/08 09:15:47;;;;;;;7.70;6.50;;;6.60;34.20;;;;;;10484156;28;20743;-68
2021/03/08 09:20:49;;;;;;;6.77;6.03;;;6.80;34.00;;;;;;10483156;28;20607;-70
2021/03/08 09:25:57;;;;;;;7.13;6.50;;;7.10;33.90;;;;;;10485214;28;20305;-69
2021/03/08 09:30:59;;;;;;;5.80;5.20;;;7.30;33.80;;;;;;10487286;28;20326;-69
2021/03/08 09:36:02;;;;;;;5.40;4.90;;;7.60;33.50;;;;;;10482127;28;20307;-70
2021/03/08 09:41:05;;;;;;;5.60;5.07;;;7.80;33.20;;;;;;10487666;28;20238;-69
2021/03/08 09:46:09;;;;;;;5.87;5.37;;;8.00;33.00;;;;;;10488355;28;20228;-69
2021/03/08 09:51:13;;;;;;;6.20;5.60;;;8.20;32.60;;;;;;10476392;28;20324;-70
2021/03/08 09:56:17;;;;;;;5.83;5.33;;;8.50;32.50;;;;;;10483627;28;20236;-70
2021/03/08 10:01:22;;;;;;;6.10;5.27;;;8.60;32.20;;;;;;10481767;28;20593;-70
2021/03/08 10:06:25;;;;;;;5.60;4.97;;;8.80;32.30;;;;;;10482827;28;20247;-70
2021/03/08 10:11:30;;;;;;;6.23;5.63;;;8.90;32.10;;;;;;10483537;28;20645;-70
2021/03/08 10:16:33;;;;;;;6.57;5.97;;;9.10;31.90;;;;;;10481171;28;20224;-70
2021/03/08 10:21:41;;;;;;;6.30;5.80;;;9.20;32.00;;;;;;10481139;28;20225;-70
2021/03/08 10:26:45;;;;;;;6.00;5.50;;;9.40;31.30;;;;;;10486783;28;20231;-69
2021/03/08 10:31:52;;;;;;;5.97;5.43;;;9.50;31.20;;;;;;10475675;28;20234;-69
2021/03/08 10:36:55;;;;;;;6.57;6.00;;;9.60;31.00;;;;;;10483350;28;20238;-69
2021/03/08 10:41:58;;;;;;;6.90;5.63;;;9.70;31.30;;;;;;10483704;28;20282;-69
2021/03/08 10:47:00;;;;;;;5.90;5.40;;;9.80;31.20;;;;;;10478151;28;20232;-69
2021/03/08 10:52:09;;;;;;;7.07;6.37;;;10.00;30.70;;;;;;10481585;28;20251;-70
2021/03/08 10:57:13;;;;;;;6.43;5.63;;;10.10;30.00;;;;;;10487627;28;20232;-70
2021/03/08 11:02:16;;;;;;;6.33;5.80;;;10.20;30.00;;;;;;10482905;28;20285;-69
2021/03/08 11:07:31;;;;;;;5.50;5.07;;;10.30;30.00;;;;;;10484972;28;20275;-70
2021/03/08 11:12:34;;;;;;;6.23;5.63;;;10.30;28.70;;;;;;10478214;28;20705;-70
2021/03/08 11:17:40;;;;;;;6.40;5.80;;;10.30;29.50;;;;;;10487579;28;20299;-70
2021/03/08 11:22:54;;;;;;;6.37;5.77;;;10.30;29.60;;;;;;10480401;28;20224;-70
2021/03/08 11:27:58;;;;;;;6.37;5.60;;;10.40;29.30;;;;;;10479120;28;20232;-70
2021/03/08 11:33:01;;;;;;;7.33;5.60;;;10.50;29.70;;;;;;10486819;28;20233;-70
2021/03/08 11:38:05;;;;;;;6.23;5.60;;;10.60;29.90;;;;;;10480018;28;20231;-70
2021/03/08 11:43:08;;;;;;;5.93;5.33;;;10.70;29.20;;;;;;10482873;28;20603;-69
2021/03/08 11:48:11;;;;;;;6.10;5.60;;;10.70;29.20;;;;;;10482567;28;20343;-70
2021/03/08 11:53:14;;;;;;;5.77;5.27;;;10.80;29.20;;;;;;10480026;28;20274;-70
2021/03/08 11:58:19;;;;;;;5.20;4.77;;;10.80;29.10;;;;;;10482929;28;20220;-70
2021/03/08 12:03:21;;;;;;;5.03;4.53;;;10.80;28.90;;;;;;10491843;28;20232;-69
2021/03/08 12:08:24;;;;;;;5.13;4.73;;;10.80;29.30;;;;;;10491801;28;20224;-70
2021/03/08 12:13:27;;;;;;;4.70;4.30;;;10.90;28.90;;;;;;10491032;28;20246;-71
2021/03/08 12:18:29;;;;;;;5.53;4.93;;;10.90;28.90;;;;;;10487353;28;20718;-70
2021/03/08 12:23:32;;;;;;;4.83;4.43;;;11.00;29.00;;;;;;10488046;28;20224;-70
2021/03/08 12:28:35;;;;;;;4.80;4.40;;;11.00;29.00;;;;;;10487522;28;20225;-70
2021/03/08 12:33:50;;;;;;;5.10;4.60;;;11.00;29.00;;;;;;10483943;28;20726;-70
2021/03/08 12:38:52;;;;;;;4.80;4.40;;;11.00;29.00;;;;;;10489293;28;20220;-70
2021/03/08 12:43:56;;;;;;;4.83;4.43;;;11.00;29.00;;;;;;10488294;28;20707;-70
2021/03/08 12:48:58;;;;;;;4.90;4.50;;;11.00;29.00;;;;;;10488271;28;20247;-70
2021/03/08 12:54:00;;;;;;;4.30;3.90;;;10.90;28.90;;;;;;10474573;28;20544;-70
2021/03/08 12:59:03;;;;;;;4.50;4.10;;;10.90;28.90;;;;;;10478689;28;20685;-70
2021/03/08 13:04:06;;;;;;;9.33;4.10;;;10.90;28.80;;;;;;10482313;28;20239;-70
2021/03/08 13:09:09;;;;;;;4.43;4.00;;;10.90;28.90;;;;;;10486499;28;20259;-70
2021/03/08 13:14:12;;;;;;;3.63;3.37;;;10.90;28.90;;;;;;10481082;28;20226;-71
2021/03/08 13:19:14;;;;;;;4.17;3.70;;;11.00;29.00;;;;;;10485334;28;20577;-70
2021/03/08 13:24:16;;;;;;;3.70;3.40;;;11.00;29.00;;;;;;10481276;28;20239;-70
2021/03/08 13:29:19;;;;;;;3.50;3.20;;;11.10;28.80;;;;;;10481166;28;20220;-71
2021/03/08 13:34:21;;;;;;;3.60;3.10;;;11.10;28.20;;;;;;10478114;28;20247;-70
2021/03/08 13:39:23;;;;;;;3.37;3.10;;;11.20;28.50;;;;;;10485066;28;20270;-71
2021/03/08 13:44:26;;;;;;;4.13;3.23;;;11.20;28.20;;;;;;10477498;28;20606;-70
2021/03/08 13:49:29;;;;;;;3.50;3.20;;;11.20;28.20;;;;;;10482092;28;20231;-70
2021/03/08 13:54:31;;;;;;;3.50;3.20;;;11.20;28.20;;;;;;10475748;28;20239;-70
2021/03/08 13:59:34;;;;;;;3.10;2.87;;;11.30;28.20;;;;;;10480473;28;20217;-70
2021/03/08 14:04:36;;;;;;;2.80;2.60;;;11.40;28.20;;;;;;10482755;28;20229;-70
2021/03/08 14:09:38;;;;;;;3.03;2.70;;;11.40;28.30;;;;;;10478113;28;20217;-70
2021/03/08 14:14:43;;;;;;;3.77;3.07;;;11.40;28.20;;;;;;10481740;28;20230;-70
2021/03/08 14:19:49;;;;;;;3.73;3.00;;;11.40;27.80;;;;;;10471953;28;20213;-70
2021/03/08 14:24:51;;;;;;;3.10;2.90;;;11.40;28.10;;;;;;10486661;28;20235;-70
2021/03/08 14:29:54;;;;;;;3.00;2.73;;;11.30;28.20;;;;;;10479602;28;20234;-70
2021/03/08 14:34:57;;;;;;;3.50;3.13;;;11.30;28.10;;;;;;10483146;28;20695;-69
2021/03/08 14:40:00;;;;;;;3.17;2.97;;;11.20;28.10;;;;;;10482542;28;20260;-70
2021/03/08 14:45:06;;;;;;;2.83;2.63;;;11.20;28.00;;;;;;10482798;28;20226;-69
2021/03/08 14:50:11;;;;;;;2.73;2.53;;;11.20;27.80;;;;;;10478087;28;20716;-68
2021/03/08 14:55:14;;;;;;;2.53;2.33;;;11.10;27.70;;;;;;10481993;28;20232;-67
2021/03/08 15:00:19;;;;;;;2.27;2.07;;;11.10;27.70;;;;;;10480250;28;20230;-67
2021/03/08 15:05:21;;;;;;;2.43;2.23;;;11.00;27.60;;;;;;10478941;28;20231;-68
2021/03/08 15:10:23;;;;;;;2.40;2.20;;;11.00;27.80;;;;;;10481634;28;20231;-69
2021/03/08 15:15:26;;;;;;;1.70;1.60;;;11.00;27.90;;;;;;10479706;28;20232;-69
2021/03/08 15:20:28;;;;;;;1.80;1.50;;;10.90;27.90;;;;;;10487014;28;20220;-69
2021/03/08 15:25:31;;;;;;;1.87;1.50;;;10.90;27.80;;;;;;10482569;28;20228;-69
2021/03/08 15:30:34;;;;;;;1.50;1.40;;;10.90;28.00;;;;;;10482939;28;20224;-69
2021/03/08 15:35:36;;;;;;;1.40;1.30;;;10.90;27.90;;;;;;10488222;28;20224;-69
2021/03/08 15:40:42;;;;;;;1.07;1.07;;;10.90;28.10;;;;;;10488947;28;20231;-69
2021/03/08 15:45:45;;;;;;;1.57;1.30;;;10.90;27.70;;;;;;10495099;28;20235;-68
2021/03/08 15:50:47;;;;;;;1.30;1.30;;;10.90;27.70;;;;;;10485403;28;20228;-67
2021/03/08 15:55:50;;;;;;;1.40;1.30;;;10.80;27.70;;;;;;10482171;28;20293;-67
2021/03/08 16:00:53;;;;;;;1.50;1.40;;;10.80;27.70;;;;;;10490522;28;20231;-68
2021/03/08 16:05:55;;;;;;;1.57;1.47;;;10.80;28.00;;;;;;10486306;28;20229;-68
2021/03/08 16:10:57;;;;;;;1.60;1.50;;;10.70;27.90;;;;;;10490740;28;20228;-68
2021/03/08 16:16:01;;;;;;;1.40;1.30;;;10.70;27.90;;;;;;10487702;28;20220;-68
2021/03/08 16:21:04;;;;;;;1.70;1.60;;;10.70;27.90;;;;;;10487778;28;20308;-68
2021/03/08 16:26:06;;;;;;;2.47;1.43;;;10.70;27.90;;;;;;10476228;28;20224;-68
2021/03/08 16:31:09;;;;;;;2.13;1.97;;;10.70;27.90;;;;;;10482414;28;20760;-68
2021/03/08 16:36:12;;;;;;;2.17;1.97;;;10.70;27.90;;;;;;10486818;28;20627;-70
2021/03/08 16:41:14;;;;;;;2.30;2.10;;;10.70;28.00;;;;;;10484633;28;20312;-70
2021/03/08 16:46:18;;;;;;;2.60;2.37;;;10.60;28.10;;;;;;10484714;28;20224;-67
2021/03/08 16:51:20;;;;;;;2.77;2.43;;;10.60;27.90;;;;;;10481689;28;20220;-68
2021/03/08 16:56:22;;;;;;;2.93;2.63;;;10.50;28.00;;;;;;10480833;28;20319;-69
2021/03/08 17:01:25;;;;;;;2.60;2.40;;;10.40;28.10;;;;;;10488027;28;20591;-70
2021/03/08 17:06:28;;;;;;;3.17;2.53;;;10.30;28.10;;;;;;10483595;28;20252;-69
2021/03/08 17:11:34;;;;;;;2.93;2.57;;;10.20;28.30;;;;;;10477756;28;20235;-66
2021/03/08 17:16:38;;;;;;;2.87;2.67;;;10.20;28.40;;;;;;10484311;28;20248;-67
2021/03/08 17:21:40;;;;;;;2.97;2.67;;;10.10;28.40;;;;;;10478611;28;20276;-68
2021/03/08 17:26:43;;;;;;;2.80;2.60;;;10.00;28.30;;;;;;10484645;28;20228;-67
2021/03/08 17:31:46;;;;;;;3.53;2.90;;;10.00;28.30;;;;;;10487665;28;20345;-70
2021/03/08 17:36:48;;;;;;;3.63;3.03;;;9.90;29.00;;;;;;10472468;28;20238;-69
2021/03/08 17:41:50;;;;;;;3.40;3.13;;;9.80;28.90;;;;;;10483877;28;20212;-68
2021/03/08 17:46:54;;;;;;;3.60;3.30;;;9.70;28.90;;;;;;10487222;28;20224;-69
2021/03/08 17:51:57;;;;;;;3.63;3.33;;;9.70;28.90;;;;;;10480975;28;20266;-70
2021/03/08 17:56:59;;;;;;;3.70;3.40;;;9.60;28.80;;;;;;10483641;28;20244;-70
2021/03/08 18:02:22;;;;;;;3.50;3.17;;;9.60;28.80;;;;;;10485438;28;20677;-70
2021/03/08 18:07:24;;;;;;;4.67;3.60;;;9.50;28.80;;;;;;10482807;28;20252;-69
2021/03/08 18:12:27;;;;;;;3.80;3.50;;;9.50;28.90;;;;;;10482503;28;20228;-70
2021/03/08 18:17:30;;;;;;;4.57;4.10;;;9.40;29.00;;;;;;10483399;28;20265;-70
2021/03/08 18:22:38;;;;;;;4.20;3.80;;;9.40;29.00;;;;;;10486646;28;20303;-70
2021/03/08 18:27:40;;;;;;;4.30;3.90;;;9.40;29.10;;;;;;10478807;28;20255;-70
2021/03/08 18:32:43;;;;;;;4.43;4.03;;;9.30;29.10;;;;;;10486450;28;20230;-72
2021/03/08 18:37:46;;;;;;;5.13;4.13;;;9.20;29.10;;;;;;10484071;28;20720;-70
2021/03/08 18:42:48;;;;;;;4.93;4.30;;;9.20;29.20;;;;;;10478210;28;20249;-70
2021/03/08 18:47:51;;;;;;;6.70;4.43;;;9.10;29.20;;;;;;10481064;28;20256;-70
2021/03/08 18:52:56;;;;;;;4.60;4.20;;;9.10;29.20;;;;;;10480826;28;20240;-67
2021/03/08 18:58:02;;;;;;;5.13;4.63;;;9.00;29.70;;;;;;10480461;28;20258;-67
2021/03/08 19:03:05;;;;;;;5.53;5.03;;;9.00;29.20;;;;;;10485038;28;20685;-67
2021/03/08 19:08:08;;;;;;;4.83;4.43;;;8.90;29.20;;;;;;10482485;28;20315;-68
2021/03/08 19:13:11;;;;;;;5.33;4.93;;;8.80;29.20;;;;;;10490470;28;20239;-67
2021/03/08 19:18:14;;;;;;;5.23;4.73;;;8.80;29.20;;;;;;10492642;28;20255;-67
2021/03/08 19:23:16;;;;;;;5.67;4.97;;;8.70;29.30;;;;;;10489989;28;20230;-68
2021/03/08 19:28:19;;;;;;;6.80;6.10;;;8.70;29.30;;;;;;10483653;28;21041;-69
2021/03/08 19:33:22;;;;;;;6.67;6.00;;;8.60;29.30;;;;;;10488887;28;20767;-68
2021/03/08 19:38:25;;;;;;;6.77;6.07;;;8.50;29.30;;;;;;10491360;28;20224;-73
2021/03/08 19:43:28;;;;;;;7.30;6.60;;;8.40;29.30;;;;;;10487882;28;20783;-68
2021/03/08 19:48:32;;;;;;;7.93;6.53;;;8.30;29.30;;;;;;10490067;28;20228;-68
2021/03/08 19:53:34;;;;;;;6.50;6.00;;;8.20;29.30;;;;;;10489219;28;20254;-68
2021/03/08 19:58:37;;;;;;;6.83;6.20;;;8.20;29.40;;;;;;10481860;28;20704;-68
2021/03/08 20:03:40;;;;;;;7.10;6.43;;;8.10;29.40;;;;;;10488455;28;20227;-72
2021/03/08 20:08:42;;;;;;;6.23;5.53;;;8.10;29.40;;;;;;10488988;28;20223;-69
2021/03/08 20:13:46;;;;;;;6.80;6.13;;;8.00;29.30;;;;;;10485340;28;20232;-69
2021/03/08 20:18:50;;;;;;;6.77;6.17;;;7.90;29.40;;;;;;10490138;28;20804;-72
2021/03/08 20:23:52;;;;;;;6.77;6.07;;;7.80;29.40;;;;;;10489128;28;20235;-72
2021/03/08 20:28:54;;;;;;;6.10;5.50;;;7.70;29.40;;;;;;10487115;28;20224;-72
2021/03/08 20:33:57;;;;;;;6.70;6.10;;;7.60;29.50;;;;;;10483060;28;20478;-72
2021/03/08 20:38:59;;;;;;;6.03;5.50;;;7.60;29.60;;;;;;10491078;28;20220;-72
2021/03/08 20:44:02;;;;;;;7.87;6.17;;;7.50;29.50;;;;;;10482143;28;20231;-73
2021/03/08 20:49:05;;;;;;;6.37;5.80;;;7.50;29.50;;;;;;10486252;28;20232;-70
2021/03/08 20:54:08;;;;;;;7.40;6.33;;;7.40;29.60;;;;;;10484698;28;20311;-70
2021/03/08 20:59:11;;;;;;;7.37;6.70;;;7.40;29.70;;;;;;10487538;28;20238;-72
2021/03/08 21:04:14;;;;;;;7.83;6.83;;;7.30;29.60;;;;;;10483212;28;20595;-68
2021/03/08 21:09:16;;;;;;;7.37;6.67;;;7.20;29.70;;;;;;10487135;28;20729;-69
2021/03/08 21:14:19;;;;;;;8.27;7.43;;;7.20;29.80;;;;;;10478301;28;20242;-69
2021/03/08 21:19:39;;;;;;;8.70;7.87;;;7.10;29.90;;;;;;10471276;28;20220;-68
2021/03/08 21:24:42;;;;;;;8.33;7.50;;;7.00;30.00;;;;;;10489936;28;20586;-71
2021/03/08 21:30:01;;;;;;;7.73;6.93;;;7.00;30.00;;;;;;10483732;28;20307;-70
2021/03/08 21:35:06;;;;;;;7.53;6.83;;;7.00;30.00;;;;;;10481013;28;20238;-70
2021/03/08 21:40:11;;;;;;;7.30;6.57;;;7.00;30.20;;;;;;10484533;28;20319;-70
2021/03/08 21:45:15;;;;;;;7.20;6.50;;;7.00;30.30;;;;;;10484080;28;20624;-75
2021/03/08 21:50:19;;;;;;;6.13;5.63;;;6.90;30.20;;;;;;10486022;28;20257;-73
2021/03/08 21:55:21;;;;;;;6.80;6.10;;;7.00;30.40;;;;;;10485239;28;20721;-76
2021/03/08 22:00:28;;;;;;;6.97;6.30;;;6.90;30.20;;;;;;10486069;28;20221;-74
2021/03/08 22:05:31;;;;;;;6.77;6.17;;;6.90;30.30;;;;;;10487242;28;20319;-73
2021/03/08 22:10:33;;;;;;;6.53;6.03;;;6.90;30.40;;;;;;10480062;28;20316;-73
2021/03/08 22:15:35;;;;;;;6.40;5.80;;;6.90;30.40;;;;;;10486782;28;20228;-73
2021/03/08 22:20:39;;;;;;;6.00;5.50;;;6.90;30.40;;;;;;10484811;28;20220;-73
2021/03/08 22:25:41;;;;;;;6.97;6.37;;;6.80;30.50;;;;;;10485725;28;20224;-73
2021/03/08 22:30:43;;;;;;;7.30;6.60;;;6.80;30.40;;;;;;10484989;28;20248;-73
2021/03/08 22:35:46;;;;;;;7.27;6.57;;;6.80;30.40;;;;;;10480963;28;20228;-73
2021/03/08 22:40:50;;;;;;;7.67;6.97;;;6.70;30.50;;;;;;10481730;28;20315;-72
2021/03/08 22:45:52;;;;;;;7.60;6.90;;;6.70;30.60;;;;;;10483955;28;20228;-73
2021/03/08 22:50:56;;;;;;;8.23;7.43;;;6.60;30.60;;;;;;10484404;28;20228;-73
2021/03/08 22:55:58;;;;;;;8.30;7.50;;;6.60;30.80;;;;;;10487259;28;20220;-73
2021/03/08 23:01:00;;;;;;;8.60;7.80;;;6.60;30.80;;;;;;10478385;28;20227;-73
2021/03/08 23:06:04;;;;;;;8.40;7.50;;;6.50;30.70;;;;;;10477454;28;20630;-72
2021/03/08 23:11:07;;;;;;;7.87;7.10;;;6.60;30.90;;;;;;10478947;28;20228;-72
2021/03/08 23:16:09;;;;;;;7.80;7.10;;;6.50;30.80;;;;;;10477052;28;20263;-73
2021/03/08 23:21:12;;;;;;;10.90;7.80;;;6.50;30.60;;;;;;10476020;28;20315;-73
2021/03/08 23:26:15;;;;;;;9.00;8.10;;;6.30;30.50;;;;;;10479195;28;20229;-73
2021/03/08 23:31:18;;;;;;;9.77;8.77;;;6.20;30.70;;;;;;10479458;28;20232;-72
2021/03/08 23:36:21;;;;;;;8.90;8.03;;;6.10;30.70;;;;;;10487190;28;20228;-73
2021/03/08 23:41:23;;;;;;;9.80;8.80;;;6.00;30.90;;;;;;10475954;28;20227;-73
2021/03/08 23:46:25;;;;;;;10.03;8.80;;;5.90;31.40;;;;;;10485291;28;20242;-73
2021/03/08 23:51:28;;;;;;;10.00;9.00;;;5.80;30.80;;;;;;10478986;28;20312;-73
2021/03/08 23:56:32;;;;;;;10.17;8.70;;;5.70;31.00;;;;;;10478041;28;20641;-73
